aviador You're here:

ETNT Decoded Metar

WITTMUNDHAFEN in GERMANY
Report Time2018-05-25 20:20:00
UTC Time2018-05-25 20:49:35
Flight Rules vfr VFR
Wind070° at 10 kt
W.Decomp.*RWY 08: 9.8 kt HW 1.9 kt LCW
W.Rank070° ranks 20
Current wind is above 070° avg. (6.4)
Visibility9999 m
Phenomena:N/A
Clouds:Scattered 280 Hf
Expected CloudBase > 6,000 ft AGL from Temp-Dew spread
CeilingNone
Temp18°C (ISA +3)
Dew Point03°C (37% RH)
AAT12.9°C
QNH1021 hPa
Density Alt236 ft
Elevation39 ft
Report Wrong Elevation
Raw Report
METAR ETNT 252020Z 07010KT 9999 SCT280 18/03 Q1021 BLU+=

Extra information for ETNT:More info

Metar Taf Metar & Taf Last 4 Metars F.Rules Stats Wind Profile Meteogram Temp Stats Airport Information Weather charts Add Link Nearby VenuesMetar ALERT Operation Metar Decoded Social comments